sensor_id;sensor_type;location;lat;lon;timestamp;pressure;altitude;pressure_sealevel;temperature;humidity
32243;BME280;18731;42.830;24.390;2023-04-22T03:01:27;94243.72;;;7.53;84.50
32243;BME280;18731;42.830;24.390;2023-04-22T03:03:53;94233.25;;;7.39;84.54
32243;BME280;18731;42.830;24.390;2023-04-22T03:06:19;94250.41;;;7.59;84.37
32243;BME280;18731;42.830;24.390;2023-04-22T03:08:45;94256.69;;;7.54;84.70
32243;BME280;18731;42.830;24.390;2023-04-22T03:11:10;94254.81;;;7.46;85.30
32243;BME280;18731;42.830;24.390;2023-04-22T03:13:36;94258.41;;;7.50;85.24
32243;BME280;18731;42.830;24.390;2023-04-22T03:16:01;94253.09;;;7.50;85.03
32243;BME280;18731;42.830;24.390;2023-04-22T03:18:27;94251.84;;;7.48;84.96
32243;BME280;18731;42.830;24.390;2023-04-22T03:20:52;94254.34;;;7.53;85.02
32243;BME280;18731;42.830;24.390;2023-04-22T03:23:18;94254.81;;;7.55;84.74
32243;BME280;18731;42.830;24.390;2023-04-22T03:25:44;94253.56;;;7.43;85.41
32243;BME280;18731;42.830;24.390;2023-04-22T03:28:10;94257.31;;;7.51;85.56
32243;BME280;18731;42.830;24.390;2023-04-22T03:30:35;94244.34;;;7.41;85.75
32243;BME280;18731;42.830;24.390;2023-04-22T03:33:01;94258.25;;;7.55;85.63
32243;BME280;18731;42.830;24.390;2023-04-22T03:35:27;94259.94;;;7.60;85.46
32243;BME280;18731;42.830;24.390;2023-04-22T03:37:53;94255.75;;;7.50;85.68
32243;BME280;18731;42.830;24.390;2023-04-22T03:40:18;94267.16;;;7.51;85.60
32243;BME280;18731;42.830;24.390;2023-04-22T03:42:44;94270.75;;;7.46;85.32
32243;BME280;18731;42.830;24.390;2023-04-22T03:45:09;94271.03;;;7.53;84.91
32243;BME280;18731;42.830;24.390;2023-04-22T03:47:35;94276.38;;;7.53;84.91
32243;BME280;18731;42.830;24.390;2023-04-22T03:50:01;94276.97;;;7.59;84.36
32243;BME280;18731;42.830;24.390;2023-04-22T03:52:26;94271.34;;;7.60;84.06
32243;BME280;18731;42.830;24.390;2023-04-22T03:54:52;94279.00;;;7.53;83.76
32243;BME280;18731;42.830;24.390;2023-04-22T03:57:17;94283.22;;;7.54;83.89
32243;BME280;18731;42.830;24.390;2023-04-22T03:59:43;94261.84;;;7.42;83.97
32243;BME280;18731;42.830;24.390;2023-04-22T04:02:08;94278.69;;;7.55;84.19
32243;BME280;18731;42.830;24.390;2023-04-22T04:04:34;94283.06;;;7.59;83.79
32243;BME280;18731;42.830;24.390;2023-04-22T04:07:00;94281.03;;;7.56;83.96
32243;BME280;18731;42.830;24.390;2023-04-22T04:09:26;94289.94;;;7.60;83.87
32243;BME280;18731;42.830;24.390;2023-04-22T04:11:52;94294.47;;;7.68;83.76
32243;BME280;18731;42.830;24.390;2023-04-22T04:14:17;94290.09;;;7.72;83.55
32243;BME280;18731;42.830;24.390;2023-04-22T04:16:43;94258.25;;;7.55;83.39
32243;BME280;18731;42.830;24.390;2023-04-22T04:19:09;94304.94;;;7.73;83.94
32243;BME280;18731;42.830;24.390;2023-04-22T04:21:34;94301.03;;;7.80;83.86
32243;BME280;18731;42.830;24.390;2023-04-22T04:24:02;94304.81;;;7.87;83.61
32243;BME280;18731;42.830;24.390;2023-04-22T04:26:27;94305.72;;;7.91;84.18
32243;BME280;18731;42.830;24.390;2023-04-22T04:28:53;94310.91;;;7.88;84.54
32243;BME280;18731;42.830;24.390;2023-04-22T04:31:20;94316.81;;;8.02;83.95
32243;BME280;18731;42.830;24.390;2023-04-22T04:33:45;94307.59;;;8.08;84.15
32243;BME280;18731;42.830;24.390;2023-04-22T04:36:12;94314.75;;;8.16;83.98
32243;BME280;18731;42.830;24.390;2023-04-22T04:38:37;94315.69;;;8.20;83.91
32243;BME280;18731;42.830;24.390;2023-04-22T04:41:03;94318.19;;;8.25;83.31
32243;BME280;18731;42.830;24.390;2023-04-22T04:43:29;94312.69;;;8.30;83.40
32243;BME280;18731;42.830;24.390;2023-04-22T04:45:55;94311.75;;;8.35;83.52
32243;BME280;18731;42.830;24.390;2023-04-22T04:48:20;94312.84;;;8.43;83.68
32243;BME280;18731;42.830;24.390;2023-04-22T04:50:49;94310.22;;;8.34;83.37
32243;BME280;18731;42.830;24.390;2023-04-22T04:53:20;94320.34;;;8.41;82.96
32243;BME280;18731;42.830;24.390;2023-04-22T04:55:46;94310.00;;;8.48;82.85
32243;BME280;18731;42.830;24.390;2023-04-22T04:58:12;94311.53;;;8.57;83.31
32243;BME280;18731;42.830;24.390;2023-04-22T05:00:37;94315.81;;;8.79;83.37
32243;BME280;18731;42.830;24.390;2023-04-22T05:03:03;94310.56;;;9.00;82.26
32243;BME280;18731;42.830;24.390;2023-04-22T05:05:29;94308.38;;;9.23;81.32
32243;BME280;18731;42.830;24.390;2023-04-22T05:07:54;94311.13;;;9.35;81.21
32243;BME280;18731;42.830;24.390;2023-04-22T05:10:20;94303.00;;;9.52;81.11
32243;BME280;18731;42.830;24.390;2023-04-22T05:12:46;94308.84;;;9.66;81.55
32243;BME280;18731;42.830;24.390;2023-04-22T05:15:15;94306.03;;;9.84;80.21
32243;BME280;18731;42.830;24.390;2023-04-22T05:17:41;94308.22;;;10.03;79.31
32243;BME280;18731;42.830;24.390;2023-04-22T05:20:07;94309.50;;;10.17;78.73
32243;BME280;18731;42.830;24.390;2023-04-22T05:22:34;94307.44;;;10.23;80.29
32243;BME280;18731;42.830;24.390;2023-04-22T05:25:06;94306.34;;;10.36;80.73
32243;BME280;18731;42.830;24.390;2023-04-22T05:27:32;94303.84;;;10.52;80.19
32243;BME280;18731;42.830;24.390;2023-04-22T05:29:58;94308.53;;;10.55;78.47
32243;BME280;18731;42.830;24.390;2023-04-22T05:32:24;94307.09;;;10.57;78.26
32243;BME280;18731;42.830;24.390;2023-04-22T05:34:50;94307.97;;;10.61;77.43
32243;BME280;18731;42.830;24.390;2023-04-22T05:37:15;94303.00;;;10.72;77.37
32243;BME280;18731;42.830;24.390;2023-04-22T05:39:41;94295.88;;;10.88;76.75
32243;BME280;18731;42.830;24.390;2023-04-22T05:42:06;94278.75;;;11.02;76.93
32243;BME280;18731;42.830;24.390;2023-04-22T05:44:33;94291.16;;;11.34;76.54
32243;BME280;18731;42.830;24.390;2023-04-22T05:46:59;94298.28;;;11.42;77.21
32243;BME280;18731;42.830;24.390;2023-04-22T05:49:24;94296.66;;;11.66;75.90
32243;BME280;18731;42.830;24.390;2023-04-22T05:51:50;94290.63;;;11.81;75.48
32243;BME280;18731;42.830;24.390;2023-04-22T05:54:16;94289.97;;;11.72;75.05
32243;BME280;18731;42.830;24.390;2023-04-22T05:56:41;94290.81;;;11.88;75.16
32243;BME280;18731;42.830;24.390;2023-04-22T05:59:07;94289.91;;;11.96;74.63
32243;BME280;18731;42.830;24.390;2023-04-22T06:01:34;94290.09;;;12.03;74.07
32243;BME280;18731;42.830;24.390;2023-04-22T06:04:03;94289.94;;;12.12;73.88
32243;BME280;18731;42.830;24.390;2023-04-22T06:06:31;94288.13;;;12.16;73.22
32243;BME280;18731;42.830;24.390;2023-04-22T06:08:57;94291.53;;;12.29;73.17
32243;BME280;18731;42.830;24.390;2023-04-22T06:11:23;94289.75;;;12.48;74.28
32243;BME280;18731;42.830;24.390;2023-04-22T06:13:48;94292.34;;;12.76;71.18
32243;BME280;18731;42.830;24.390;2023-04-22T06:16:14;94287.75;;;12.93;70.47
32243;BME280;18731;42.830;24.390;2023-04-22T06:18:40;94297.81;;;13.27;70.68
32243;BME280;18731;42.830;24.390;2023-04-22T06:21:08;94293.59;;;13.45;70.34
32243;BME280;18731;42.830;24.390;2023-04-22T06:23:33;94293.84;;;13.56;70.53
32243;BME280;18731;42.830;24.390;2023-04-22T06:25:59;94290.41;;;13.75;68.90
32243;BME280;18731;42.830;24.390;2023-04-22T06:28:26;94282.06;;;13.80;67.96
32243;BME280;18731;42.830;24.390;2023-04-22T06:30:52;94299.28;;;13.98;66.57
32243;BME280;18731;42.830;24.390;2023-04-22T06:33:17;94296.97;;;13.97;65.34
32243;BME280;18731;42.830;24.390;2023-04-22T06:35:43;94298.09;;;14.15;62.01
32243;BME280;18731;42.830;24.390;2023-04-22T06:38:09;94298.53;;;14.59;64.14
32243;BME280;18731;42.830;24.390;2023-04-22T06:40:35;94301.22;;;14.82;61.70
32243;BME280;18731;42.830;24.390;2023-04-22T06:43:00;94296.94;;;14.77;61.42
32243;BME280;18731;42.830;24.390;2023-04-22T06:45:26;94302.19;;;14.70;61.12
32243;BME280;18731;42.830;24.390;2023-04-22T06:47:52;94294.44;;;14.65;61.69
32243;BME280;18731;42.830;24.390;2023-04-22T06:50:21;94299.25;;;14.79;60.90
32243;BME280;18731;42.830;24.390;2023-04-22T06:52:46;94291.91;;;14.99;60.58
32243;BME280;18731;42.830;24.390;2023-04-22T06:55:12;94290.78;;;15.26;61.60
32243;BME280;18731;42.830;24.390;2023-04-22T06:57:38;94291.91;;;15.52;61.30
32243;BME280;18731;42.830;24.390;2023-04-22T07:00:05;94296.31;;;15.90;58.18
32243;BME280;18731;42.830;24.390;2023-04-22T07:02:33;94289.47;;;15.96;59.62
32243;BME280;18731;42.830;24.390;2023-04-22T07:04:59;94295.19;;;16.24;58.32
32243;BME280;18731;42.830;24.390;2023-04-22T07:07:24;94294.66;;;16.45;57.23
32243;BME280;18731;42.830;24.390;2023-04-22T07:09:50;94292.88;;;16.60;55.76
32243;BME280;18731;42.830;24.390;2023-04-22T07:12:16;94295.38;;;16.79;57.63
32243;BME280;18731;42.830;24.390;2023-04-22T07:14:43;94284.47;;;17.09;54.79
32243;BME280;18731;42.830;24.390;2023-04-22T07:17:09;94279.59;;;17.25;54.95
32243;BME280;18731;42.830;24.390;2023-04-22T07:19:35;94289.38;;;17.48;54.58
32243;BME280;18731;42.830;24.390;2023-04-22T07:22:01;94280.56;;;17.58;53.95
32243;BME280;18731;42.830;24.390;2023-04-22T07:24:31;94288.38;;;17.74;53.85
32243;BME280;18731;42.830;24.390;2023-04-22T07:26:57;94292.66;;;17.78;51.15
32243;BME280;18731;42.830;24.390;2023-04-22T07:29:23;94293.38;;;17.68;50.29
32243;BME280;18731;42.830;24.390;2023-04-22T07:31:48;94285.59;;;17.63;48.29
32243;BME280;18731;42.830;24.390;2023-04-22T07:34:14;94301.78;;;17.63;49.71
32243;BME280;18731;42.830;24.390;2023-04-22T07:36:41;94293.19;;;17.43;49.47
32243;BME280;18731;42.830;24.390;2023-04-22T07:39:07;94303.22;;;17.46;49.61
32243;BME280;18731;42.830;24.390;2023-04-22T07:41:34;94297.72;;;17.28;48.96
32243;BME280;18731;42.830;24.390;2023-04-22T07:44:01;94303.78;;;17.15;47.37
32243;BME280;18731;42.830;24.390;2023-04-22T07:46:28;94302.78;;;16.89;48.55
32243;BME280;18731;42.830;24.390;2023-04-22T07:48:54;94309.50;;;16.65;48.78
32243;BME280;18731;42.830;24.390;2023-04-22T07:51:20;94294.09;;;16.29;48.93
32243;BME280;18731;42.830;24.390;2023-04-22T07:53:45;94309.06;;;16.26;51.39
32243;BME280;18731;42.830;24.390;2023-04-22T07:56:11;94313.03;;;16.36;48.37
32243;BME280;18731;42.830;24.390;2023-04-22T07:58:37;94253.25;;;15.90;49.07
32243;BME280;18731;42.830;24.390;2023-04-22T08:01:03;94309.06;;;16.26;50.49
32243;BME280;18731;42.830;24.390;2023-04-22T08:03:29;94311.69;;;16.56;50.51
32243;BME280;18731;42.830;24.390;2023-04-22T08:05:54;94302.72;;;16.82;49.11
32243;BME280;18731;42.830;24.390;2023-04-22T08:08:23;94303.56;;;16.90;46.66
32243;BME280;18731;42.830;24.390;2023-04-22T08:10:49;94291.84;;;16.71;49.39
32243;BME280;18731;42.830;24.390;2023-04-22T08:13:15;94301.22;;;16.48;49.47
32243;BME280;18731;42.830;24.390;2023-04-22T08:15:40;94297.28;;;16.04;50.76
32243;BME280;18731;42.830;24.390;2023-04-22T08:18:06;94286.81;;;15.43;53.28
32243;BME280;18731;42.830;24.390;2023-04-22T08:20:32;94282.81;;;15.07;52.51
32243;BME280;18731;42.830;24.390;2023-04-22T08:22:57;94307.44;;;15.09;53.97
32243;BME280;18731;42.830;24.390;2023-04-22T08:25:25;94319.66;;;15.06;55.53
32243;BME280;18731;42.830;24.390;2023-04-22T08:27:51;94313.53;;;15.06;54.35
32243;BME280;18731;42.830;24.390;2023-04-22T08:30:17;94299.56;;;14.97;53.19
32243;BME280;18731;42.830;24.390;2023-04-22T08:32:43;94323.63;;;15.12;53.57
32243;BME280;18731;42.830;24.390;2023-04-22T08:35:09;94324.88;;;14.96;54.74
32243;BME280;18731;42.830;24.390;2023-04-22T08:37:34;94324.03;;;15.15;55.27
32243;BME280;18731;42.830;24.390;2023-04-22T08:40:00;94330.25;;;15.19;52.76
32243;BME280;18731;42.830;24.390;2023-04-22T08:42:26;94336.81;;;15.48;55.00
32243;BME280;18731;42.830;24.390;2023-04-22T08:44:53;94335.84;;;15.33;50.66
32243;BME280;18731;42.830;24.390;2023-04-22T08:47:19;94345.84;;;15.09;52.12
32243;BME280;18731;42.830;24.390;2023-04-22T08:49:46;94343.94;;;14.87;52.37
32243;BME280;18731;42.830;24.390;2023-04-22T08:52:12;94345.94;;;14.71;55.08
32243;BME280;18731;42.830;24.390;2023-04-22T08:54:40;94346.94;;;14.63;55.38
32243;BME280;18731;42.830;24.390;2023-04-22T08:57:07;94347.50;;;14.72;56.01
32243;BME280;18731;42.830;24.390;2023-04-22T08:59:36;94348.88;;;14.62;55.70
32243;BME280;18731;42.830;24.390;2023-04-22T09:02:04;94347.56;;;14.75;54.93
32243;BME280;18731;42.830;24.390;2023-04-22T09:04:31;94344.97;;;14.60;55.87
32243;BME280;18731;42.830;24.390;2023-04-22T09:06:58;94340.31;;;14.57;55.13
32243;BME280;18731;42.830;24.390;2023-04-22T09:09:26;94349.44;;;14.52;56.66
32243;BME280;18731;42.830;24.390;2023-04-22T09:11:53;94349.41;;;14.71;56.92
32243;BME280;18731;42.830;24.390;2023-04-22T09:14:18;94346.25;;;14.89;58.68
32243;BME280;18731;42.830;24.390;2023-04-22T09:16:46;94337.22;;;14.77;58.31
32243;BME280;18731;42.830;24.390;2023-04-22T09:19:13;94344.69;;;14.65;57.63
32243;BME280;18731;42.830;24.390;2023-04-22T09:21:40;94347.56;;;14.75;57.00
32243;BME280;18731;42.830;24.390;2023-04-22T09:24:07;94358.38;;;14.79;56.87
32243;BME280;18731;42.830;24.390;2023-04-22T09:26:38;94364.72;;;14.48;57.76
32243;BME280;18731;42.830;24.390;2023-04-22T09:29:05;94359.03;;;14.14;60.13
32243;BME280;18731;42.830;24.390;2023-04-22T09:31:34;94376.84;;;14.03;60.14
32243;BME280;18731;42.830;24.390;2023-04-22T09:34:05;94371.84;;;13.67;61.20
32243;BME280;18731;42.830;24.390;2023-04-22T09:36:32;94364.88;;;13.46;62.12
32243;BME280;18731;42.830;24.390;2023-04-22T09:39:05;94378.19;;;13.11;63.62
32243;BME280;18731;42.830;24.390;2023-04-22T09:41:36;94385.34;;;13.07;63.82
32243;BME280;18731;42.830;24.390;2023-04-22T09:44:08;94384.16;;;13.05;64.63
32243;BME280;18731;42.830;24.390;2023-04-22T09:46:35;94391.88;;;12.78;64.80
32243;BME280;18731;42.830;24.390;2023-04-22T09:49:00;94396.41;;;12.62;65.67
32243;BME280;18731;42.830;24.390;2023-04-22T09:51:27;94408.75;;;12.51;66.71
32243;BME280;18731;42.830;24.390;2023-04-22T09:53:57;94410.09;;;12.45;66.76
32243;BME280;18731;42.830;24.390;2023-04-22T09:56:40;94409.38;;;12.32;66.29
32243;BME280;18731;42.830;24.390;2023-04-22T09:59:06;94417.06;;;12.34;66.09
32243;BME280;18731;42.830;24.390;2023-04-22T10:01:40;94413.75;;;12.24;67.63
32243;BME280;18731;42.830;24.390;2023-04-22T10:04:07;94416.19;;;12.30;68.35
32243;BME280;18731;42.830;24.390;2023-04-22T10:06:39;94418.50;;;12.03;68.67
32243;BME280;18731;42.830;24.390;2023-04-22T10:09:05;94416.25;;;12.05;65.44
32243;BME280;18731;42.830;24.390;2023-04-22T10:11:33;94426.22;;;11.80;61.98
32243;BME280;18731;42.830;24.390;2023-04-22T10:13:59;94419.97;;;11.52;64.89
32243;BME280;18731;42.830;24.390;2023-04-22T10:16:30;94426.31;;;11.47;66.89
32243;BME280;18731;42.830;24.390;2023-04-22T10:18:58;94410.50;;;11.42;68.42
32243;BME280;18731;42.830;24.390;2023-04-22T10:21:26;94419.53;;;11.62;69.91
32243;BME280;18731;42.830;24.390;2023-04-22T10:23:52;94419.84;;;11.73;68.86
32243;BME280;18731;42.830;24.390;2023-04-22T10:26:37;94409.16;;;11.73;70.15
32243;BME280;18731;42.830;24.390;2023-04-22T10:29:05;94405.03;;;11.75;68.89
32243;BME280;18731;42.830;24.390;2023-04-22T10:31:32;94412.06;;;11.92;70.03
32243;BME280;18731;42.830;24.390;2023-04-22T10:34:14;94411.25;;;12.04;70.74
32243;BME280;18731;42.830;24.390;2023-04-22T10:36:52;94402.75;;;12.14;70.32
32243;BME280;18731;42.830;24.390;2023-04-22T10:39:18;94397.28;;;12.10;70.15
32243;BME280;18731;42.830;24.390;2023-04-22T10:42:12;94403.31;;;12.07;70.56
32243;BME280;18731;42.830;24.390;2023-04-22T10:44:53;94397.50;;;12.17;71.62
32243;BME280;18731;42.830;24.390;2023-04-22T10:50:23;94388.34;;;12.46;69.78
32243;BME280;18731;42.830;24.390;2023-04-22T10:52:55;94400.22;;;12.61;68.70
32243;BME280;18731;42.830;24.390;2023-04-22T10:55:21;94397.13;;;13.18;66.86
32243;BME280;18731;42.830;24.390;2023-04-22T10:57:49;94383.69;;;13.66;63.27
32243;BME280;18731;42.830;24.390;2023-04-22T11:05:30;94382.53;;;15.48;57.07
32243;BME280;18731;42.830;24.390;2023-04-22T11:08:14;94372.84;;;16.19;54.96
32243;BME280;18731;42.830;24.390;2023-04-22T11:10:46;94373.59;;;16.83;55.67
32243;BME280;18731;42.830;24.390;2023-04-22T11:13:19;94370.13;;;17.26;48.98
32243;BME280;18731;42.830;24.390;2023-04-22T11:15:48;94364.97;;;17.55;47.45
32243;BME280;18731;42.830;24.390;2023-04-22T11:18:21;94360.38;;;17.59;47.72
32243;BME280;18731;42.830;24.390;2023-04-22T11:20:48;94359.28;;;17.67;46.45
32243;BME280;18731;42.830;24.390;2023-04-22T11:23:25;94352.91;;;17.96;45.96
32243;BME280;18731;42.830;24.390;2023-04-22T11:25:59;94356.59;;;18.36;45.22
32243;BME280;18731;42.830;24.390;2023-04-22T11:28:25;94361.38;;;18.64;44.60
32243;BME280;18731;42.830;24.390;2023-04-22T11:30:51;94352.81;;;18.51;45.99
32243;BME280;18731;42.830;24.390;2023-04-22T11:33:18;94347.50;;;18.80;45.01
32243;BME280;18731;42.830;24.390;2023-04-22T11:35:48;94353.69;;;18.77;43.84
32243;BME280;18731;42.830;24.390;2023-04-22T11:38:14;94339.88;;;18.09;45.68
32243;BME280;18731;42.830;24.390;2023-04-22T11:40:42;94346.31;;;18.67;46.65
32243;BME280;18731;42.830;24.390;2023-04-22T11:43:08;94334.00;;;18.98;46.18
32243;BME280;18731;42.830;24.390;2023-04-22T11:45:36;94331.72;;;19.28;46.45
32243;BME280;18731;42.830;24.390;2023-04-22T11:48:04;94329.00;;;19.17;42.43
32243;BME280;18731;42.830;24.390;2023-04-22T11:50:35;94334.81;;;19.12;43.15
32243;BME280;18731;42.830;24.390;2023-04-22T11:53:12;94331.69;;;19.07;40.91
32243;BME280;18731;42.830;24.390;2023-04-22T11:55:39;94328.56;;;18.76;42.75
32243;BME280;18731;42.830;24.390;2023-04-22T11:58:22;94327.72;;;18.54;43.23
32243;BME280;18731;42.830;24.390;2023-04-22T12:00:50;94324.72;;;18.88;43.00
32243;BME280;18731;42.830;24.390;2023-04-22T12:03:21;94322.41;;;18.90;42.23
32243;BME280;18731;42.830;24.390;2023-04-22T12:08:34;94310.81;;;18.93;41.66
32243;BME280;18731;42.830;24.390;2023-04-22T12:11:10;94303.13;;;19.16;41.20
32243;BME280;18731;42.830;24.390;2023-04-22T12:18:58;94300.00;;;19.00;40.99
32243;BME280;18731;42.830;24.390;2023-04-22T12:21:24;94301.19;;;19.20;40.50
32243;BME280;18731;42.830;24.390;2023-04-22T12:23:54;94297.31;;;19.36;41.55
32243;BME280;18731;42.830;24.390;2023-04-22T12:26:22;94297.31;;;19.36;40.77
32243;BME280;18731;42.830;24.390;2023-04-22T12:28:49;94285.31;;;19.65;41.64
32243;BME280;18731;42.830;24.390;2023-04-22T12:31:16;94286.78;;;19.87;39.17
32243;BME280;18731;42.830;24.390;2023-04-22T12:33:43;94286.06;;;19.76;39.89
32243;BME280;18731;42.830;24.390;2023-04-22T12:36:09;94278.28;;;19.85;37.91
32243;BME280;18731;42.830;24.390;2023-04-22T12:38:35;94276.78;;;19.70;39.86
32243;BME280;18731;42.830;24.390;2023-04-22T12:41:02;94276.72;;;19.91;37.43
32243;BME280;18731;42.830;24.390;2023-04-22T12:43:29;94261.66;;;19.83;36.77
32243;BME280;18731;42.830;24.390;2023-04-22T12:45:57;94272.56;;;19.58;37.53
32243;BME280;18731;42.830;24.390;2023-04-22T12:48:23;94277.59;;;19.42;37.33
32243;BME280;18731;42.830;24.390;2023-04-22T12:50:49;94279.91;;;19.15;36.88
32243;BME280;18731;42.830;24.390;2023-04-22T12:53:15;94266.38;;;19.30;37.39
32243;BME280;18731;42.830;24.390;2023-04-22T12:55:41;94263.31;;;18.85;38.56
32243;BME280;18731;42.830;24.390;2023-04-22T12:58:07;94265.59;;;18.61;38.83
32243;BME280;18731;42.830;24.390;2023-04-22T13:00:33;94262.78;;;18.29;39.74
32243;BME280;18731;42.830;24.390;2023-04-22T13:02:59;94261.19;;;18.14;41.84
32243;BME280;18731;42.830;24.390;2023-04-22T13:05:24;94244.06;;;17.78;40.84
32243;BME280;18731;42.830;24.390;2023-04-22T13:07:50;94260.59;;;17.66;41.15
32243;BME280;18731;42.830;24.390;2023-04-22T13:10:16;94266.28;;;17.54;41.73
32243;BME280;18731;42.830;24.390;2023-04-22T13:12:42;94257.78;;;17.52;41.49
32243;BME280;18731;42.830;24.390;2023-04-22T13:15:09;94259.63;;;17.41;42.74
32243;BME280;18731;42.830;24.390;2023-04-22T13:17:36;94259.97;;;17.32;42.10
32243;BME280;18731;42.830;24.390;2023-04-22T13:20:03;94266.00;;;17.11;42.94
32243;BME280;18731;42.830;24.390;2023-04-22T13:22:30;94272.69;;;16.80;43.09
32243;BME280;18731;42.830;24.390;2023-04-22T13:24:56;94272.59;;;16.69;43.44
32243;BME280;18731;42.830;24.390;2023-04-22T13:27:21;94276.97;;;16.48;44.25
32243;BME280;18731;42.830;24.390;2023-04-22T13:29:47;94271.88;;;16.39;44.13
32243;BME280;18731;42.830;24.390;2023-04-22T13:32:13;94272.94;;;16.31;44.39
32243;BME280;18731;42.830;24.390;2023-04-22T13:34:39;94269.06;;;16.28;44.96
32243;BME280;18731;42.830;24.390;2023-04-22T13:37:05;94271.81;;;16.32;44.83
32243;BME280;18731;42.830;24.390;2023-04-22T13:39:31;94271.50;;;16.40;44.43
32243;BME280;18731;42.830;24.390;2023-04-22T13:41:57;94280.09;;;16.53;44.66
32243;BME280;18731;42.830;24.390;2023-04-22T13:44:23;94266.28;;;16.58;45.12
32243;BME280;18731;42.830;24.390;2023-04-22T13:46:49;94266.47;;;16.73;44.56
32243;BME280;18731;42.830;24.390;2023-04-22T13:49:14;94276.50;;;16.76;44.63
32243;BME280;18731;42.830;24.390;2023-04-22T13:51:40;94277.66;;;16.41;44.81
32243;BME280;18731;42.830;24.390;2023-04-22T13:54:06;94269.50;;;15.97;45.56
32243;BME280;18731;42.830;24.390;2023-04-22T13:56:32;94272.63;;;16.02;46.62
32243;BME280;18731;42.830;24.390;2023-04-22T13:58:59;94277.91;;;15.92;45.99
32243;BME280;18731;42.830;24.390;2023-04-22T14:01:25;94272.63;;;16.36;45.21
32243;BME280;18731;42.830;24.390;2023-04-22T14:03:52;94263.97;;;16.20;45.76
32243;BME280;18731;42.830;24.390;2023-04-22T14:06:18;94274.06;;;15.93;45.59
32243;BME280;18731;42.830;24.390;2023-04-22T14:08:44;94270.22;;;15.94;46.03
32243;BME280;18731;42.830;24.390;2023-04-22T14:11:10;94264.94;;;16.01;45.88
32243;BME280;18731;42.830;24.390;2023-04-22T14:13:37;94276.56;;;16.08;45.34
32243;BME280;18731;42.830;24.390;2023-04-22T14:16:04;94268.84;;;16.07;47.22
32243;BME280;18731;42.830;24.390;2023-04-22T14:18:35;94271.50;;;16.03;48.24
32243;BME280;18731;42.830;24.390;2023-04-22T14:21:03;94280.22;;;15.93;48.48
32243;BME280;18731;42.830;24.390;2023-04-22T14:23:30;94274.72;;;15.83;48.50
32243;BME280;18731;42.830;24.390;2023-04-22T14:25:55;94280.38;;;15.74;48.48
32243;BME280;18731;42.830;24.390;2023-04-22T14:28:21;94280.38;;;15.74;49.28
32243;BME280;18731;42.830;24.390;2023-04-22T14:30:47;94283.31;;;15.65;49.63
32243;BME280;18731;42.830;24.390;2023-04-22T14:33:13;94283.28;;;15.62;49.48
32243;BME280;18731;42.830;24.390;2023-04-22T14:35:38;94287.53;;;15.63;49.39
32243;BME280;18731;42.830;24.390;2023-04-22T14:38:07;94287.53;;;15.63;50.12
32243;BME280;18731;42.830;24.390;2023-04-22T14:40:33;94288.13;;;15.56;49.56
32243;BME280;18731;42.830;24.390;2023-04-22T14:43:00;94292.91;;;15.63;49.52
32243;BME280;18731;42.830;24.390;2023-04-22T14:45:28;94296.09;;;15.72;49.21
32243;BME280;18731;42.830;24.390;2023-04-22T14:47:54;94276.13;;;15.73;49.89
32243;BME280;18731;42.830;24.390;2023-04-22T14:50:20;94295.28;;;15.68;56.43
32243;BME280;18731;42.830;24.390;2023-04-22T14:52:46;94302.53;;;15.64;57.36
32243;BME280;18731;42.830;24.390;2023-04-22T14:55:12;94301.94;;;15.55;59.35
32243;BME280;18731;42.830;24.390;2023-04-22T14:57:37;94300.81;;;15.56;59.72
32243;BME280;18731;42.830;24.390;2023-04-22T15:00:07;94300.41;;;15.54;59.49
32243;BME280;18731;42.830;24.390;2023-04-22T15:02:33;94299.25;;;15.55;60.81
32243;BME280;18731;42.830;24.390;2023-04-22T15:04:59;94292.28;;;15.50;60.01
32243;BME280;18731;42.830;24.390;2023-04-22T15:07:25;94290.63;;;15.42;57.31
32243;BME280;18731;42.830;24.390;2023-04-22T15:09:52;94294.66;;;15.55;58.58
32243;BME280;18731;42.830;24.390;2023-04-22T15:12:18;94290.56;;;15.61;59.67
32243;BME280;18731;42.830;24.390;2023-04-22T15:14:44;94295.09;;;15.57;60.09
32243;BME280;18731;42.830;24.390;2023-04-22T15:17:10;94294.75;;;15.59;58.35
32243;BME280;18731;42.830;24.390;2023-04-22T15:19:37;94291.28;;;15.58;57.67
32243;BME280;18731;42.830;24.390;2023-04-22T15:22:03;94292.81;;;15.59;57.72
32243;BME280;18731;42.830;24.390;2023-04-22T15:24:29;94295.75;;;15.51;57.51
32243;BME280;18731;42.830;24.390;2023-04-22T15:26:55;94296.28;;;15.33;54.86
32243;BME280;18731;42.830;24.390;2023-04-22T15:29:21;94290.78;;;15.26;56.07
32243;BME280;18731;42.830;24.390;2023-04-22T15:31:47;94300.81;;;15.29;57.64
32243;BME280;18731;42.830;24.390;2023-04-22T15:34:13;94302.69;;;15.25;59.12
32243;BME280;18731;42.830;24.390;2023-04-22T15:36:39;94303.03;;;15.24;60.01
32243;BME280;18731;42.830;24.390;2023-04-22T15:39:05;94302.63;;;15.22;60.40
32243;BME280;18731;42.830;24.390;2023-04-22T15:41:32;94304.69;;;15.05;58.39
32243;BME280;18731;42.830;24.390;2023-04-22T15:44:01;94306.59;;;15.05;55.92
32243;BME280;18731;42.830;24.390;2023-04-22T15:46:28;94306.53;;;15.01;57.83
32243;BME280;18731;42.830;24.390;2023-04-22T15:48:58;94313.19;;;14.85;58.06
32243;BME280;18731;42.830;24.390;2023-04-22T15:51:24;94306.19;;;14.80;57.28
32243;BME280;18731;42.830;24.390;2023-04-22T15:53:52;94311.50;;;14.76;57.47
32243;BME280;18731;42.830;24.390;2023-04-22T15:56:18;94315.97;;;14.69;56.88
32243;BME280;18731;42.830;24.390;2023-04-22T15:58:44;94313.66;;;14.67;58.16
32243;BME280;18731;42.830;24.390;2023-04-22T16:01:10;94321.88;;;14.55;58.53
32243;BME280;18731;42.830;24.390;2023-04-22T16:03:35;94319.53;;;14.34;58.60
32243;BME280;18731;42.830;24.390;2023-04-22T16:06:01;94323.59;;;14.25;58.09
32243;BME280;18731;42.830;24.390;2023-04-22T16:08:27;94337.50;;;14.11;58.08